createdAt,value
2017-12-23T00:01:34.287Z,5.80
2017-12-23T00:04:01.763Z,5.80
2017-12-23T00:06:33.795Z,5.70
2017-12-23T00:09:01.457Z,5.70
2017-12-23T00:11:28.898Z,5.70
2017-12-23T00:13:56.446Z,5.70
2017-12-23T00:16:23.960Z,5.70
2017-12-23T00:18:51.434Z,5.80
2017-12-23T00:21:22.187Z,5.80
2017-12-23T00:23:49.639Z,5.90
2017-12-23T00:26:17.186Z,5.90
2017-12-23T00:28:44.659Z,5.90
2017-12-23T00:31:12.126Z,5.90
2017-12-23T00:33:40.397Z,6.00
2017-12-23T00:36:15.432Z,6.00
2017-12-23T00:38:43.290Z,6.00
2017-12-23T00:41:11.082Z,6.00
2017-12-23T00:43:38.527Z,6.00
2017-12-23T00:46:05.945Z,6.00
2017-12-23T00:48:33.436Z,6.00
2017-12-23T00:51:00.881Z,6.00
2017-12-23T00:53:35.753Z,6.00
2017-12-23T00:56:03.200Z,6.00
2017-12-23T00:58:31.058Z,6.00
2017-12-23T01:00:58.575Z,6.00
2017-12-23T01:03:26.020Z,5.90
2017-12-23T01:05:53.741Z,6.00
2017-12-23T01:08:21.194Z,6.00
2017-12-23T01:10:48.661Z,6.00
2017-12-23T01:13:16.873Z,6.00
2017-12-23T01:15:44.373Z,6.00
2017-12-23T01:18:11.816Z,6.00
2017-12-23T01:20:39.293Z,6.00
2017-12-23T01:23:10.517Z,6.00
2017-12-23T01:25:38.443Z,6.00
2017-12-23T01:28:05.913Z,6.10
2017-12-23T01:30:33.408Z,6.00
2017-12-23T01:33:00.845Z,6.00
2017-12-23T01:35:28.301Z,6.00
2017-12-23T01:38:00.088Z,6.00
2017-12-23T01:40:27.535Z,6.00
2017-12-23T01:42:55.029Z,6.00
2017-12-23T01:45:22.492Z,6.00
2017-12-23T01:47:50.127Z,6.00
2017-12-23T01:50:17.584Z,6.00
2017-12-23T01:52:48.226Z,6.00
2017-12-23T01:55:15.985Z,6.00
2017-12-23T01:57:43.445Z,6.00
2017-12-23T02:00:11.109Z,6.10
2017-12-23T02:02:38.553Z,6.10
2017-12-23T02:05:06.136Z,6.10
2017-12-23T02:07:33.560Z,6.00
2017-12-23T02:10:04.101Z,6.00
2017-12-23T02:12:31.536Z,5.90
2017-12-23T02:14:59.013Z,5.90
2017-12-23T02:17:26.488Z,5.80
2017-12-23T02:19:53.966Z,5.80
2017-12-23T02:22:21.422Z,5.80
2017-12-23T02:24:48.864Z,5.90
2017-12-23T02:27:16.337Z,5.90
2017-12-23T02:29:43.948Z,6.00
2017-12-23T02:32:11.382Z,6.00
2017-12-23T02:34:38.903Z,6.10
2017-12-23T02:37:06.324Z,6.10
2017-12-23T02:39:45.572Z,6.20
2017-12-23T02:42:13.072Z,6.20
2017-12-23T02:44:40.546Z,6.20
2017-12-23T02:47:08.259Z,6.30
2017-12-23T02:49:35.733Z,6.30
2017-12-23T02:52:03.176Z,6.30
2017-12-23T02:54:34.937Z,6.30
2017-12-23T02:57:02.571Z,6.40
2017-12-23T02:59:30.103Z,6.50
2017-12-23T03:01:57.533Z,6.50
2017-12-23T03:04:24.960Z,6.50
2017-12-23T03:06:52.446Z,6.40
2017-12-23T03:09:19.888Z,6.50
2017-12-23T03:11:50.389Z,6.50
2017-12-23T03:14:17.844Z,6.50
2017-12-23T03:16:45.304Z,6.50
2017-12-23T03:19:12.876Z,6.40
2017-12-23T03:21:40.553Z,6.40
2017-12-23T03:24:12.536Z,6.40
2017-12-23T03:26:39.976Z,6.40
2017-12-23T03:29:08.213Z,6.40
2017-12-23T03:31:35.854Z,6.40
2017-12-23T03:34:03.322Z,6.30
2017-12-23T03:36:30.776Z,6.30
2017-12-23T03:38:58.501Z,6.40
2017-12-23T03:41:26.729Z,6.40
2017-12-23T03:43:58.185Z,6.40
2017-12-23T03:46:25.632Z,6.40
2017-12-23T03:48:53.116Z,6.40
2017-12-23T03:51:20.560Z,6.40
2017-12-23T03:53:48.013Z,6.40
2017-12-23T03:56:15.502Z,6.40
2017-12-23T03:58:42.958Z,6.40
2017-12-23T04:01:10.396Z,6.40
2017-12-23T04:03:37.860Z,6.40
2017-12-23T04:06:05.313Z,6.40
2017-12-23T04:08:34.264Z,6.40
2017-12-23T04:11:05.758Z,6.40
2017-12-23T04:13:33.188Z,6.40
2017-12-23T04:16:00.656Z,6.50
2017-12-23T04:18:28.132Z,6.40
2017-12-23T04:20:55.688Z,6.50
2017-12-23T04:23:23.168Z,6.40
2017-12-23T04:25:51.480Z,6.40
2017-12-23T04:28:18.916Z,6.40
2017-12-23T04:30:46.463Z,6.30
2017-12-23T04:33:13.927Z,6.30
2017-12-23T04:35:41.376Z,6.30
2017-12-23T04:38:09.603Z,6.20
2017-12-23T04:40:40.131Z,6.20
2017-12-23T04:43:07.572Z,6.20
2017-12-23T04:45:35.236Z,6.20
2017-12-23T04:48:02.695Z,6.20
2017-12-23T04:50:30.588Z,6.10
2017-12-23T04:52:58.040Z,6.10
2017-12-23T04:55:29.053Z,6.10
2017-12-23T04:57:56.486Z,6.20
2017-12-23T05:00:24.088Z,6.30
2017-12-23T05:02:51.545Z,6.30
2017-12-23T05:05:19.012Z,6.30
2017-12-23T05:07:46.476Z,6.20
2017-12-23T05:12:48.047Z,6.10
2017-12-23T05:15:15.491Z,6.10
2017-12-23T05:17:42.952Z,6.10
2017-12-23T05:20:10.396Z,6.10
2017-12-23T05:22:37.872Z,6.10
2017-12-23T05:25:05.309Z,6.10
2017-12-23T05:27:36.564Z,6.00
2017-12-23T05:30:07.411Z,6.10
2017-12-23T05:32:34.881Z,6.10
2017-12-23T05:35:02.321Z,6.10
2017-12-23T05:37:30.069Z,6.10
2017-12-23T05:39:57.518Z,6.10
2017-12-23T05:42:24.981Z,6.20
2017-12-23T05:44:56.636Z,6.30
2017-12-23T05:47:24.243Z,6.40
2017-12-23T05:49:51.705Z,6.40
2017-12-23T05:52:19.215Z,6.50
2017-12-23T05:54:46.652Z,6.50
2017-12-23T05:57:21.689Z,6.50
2017-12-23T05:59:52.159Z,6.50
2017-12-23T06:02:19.591Z,6.40
2017-12-23T06:04:47.844Z,6.40
2017-12-23T06:07:15.325Z,6.40
2017-12-23T06:09:42.787Z,6.40
2017-12-23T06:12:10.240Z,6.40
2017-12-23T06:14:37.704Z,6.50
2017-12-23T06:17:05.229Z,6.50
2017-12-23T06:19:32.684Z,6.50
2017-12-23T06:22:00.258Z,6.50
2017-12-23T06:24:27.724Z,6.40
2017-12-23T06:26:59.172Z,6.30
2017-12-23T06:29:26.657Z,6.30
2017-12-23T06:31:54.176Z,6.30
2017-12-23T06:34:21.633Z,6.30
2017-12-23T06:36:49.096Z,6.30
2017-12-23T06:39:16.570Z,6.30
2017-12-23T06:41:44.040Z,6.30
2017-12-23T06:44:11.471Z,6.40
2017-12-23T06:46:39.025Z,6.60
2017-12-23T06:49:06.967Z,6.60
2017-12-23T06:51:34.442Z,6.70
2017-12-23T06:54:02.026Z,6.60
2017-12-23T06:56:30.295Z,6.60
2017-12-23T06:59:01.714Z,6.50
2017-12-23T07:01:29.172Z,6.50
2017-12-23T07:03:56.644Z,6.50
2017-12-23T07:06:24.180Z,6.50
2017-12-23T07:08:51.652Z,6.50
2017-12-23T07:11:19.112Z,6.50
2017-12-23T07:13:49.974Z,6.50
2017-12-23T07:16:18.205Z,6.50
2017-12-23T07:18:45.692Z,6.50
2017-12-23T07:21:13.152Z,6.50
2017-12-23T07:23:40.677Z,6.60
2017-12-23T07:26:08.168Z,6.60
2017-12-23T07:28:35.617Z,6.50
2017-12-23T07:31:03.067Z,6.50
2017-12-23T07:33:30.559Z,6.60
2017-12-23T07:35:58.015Z,6.70
2017-12-23T07:38:25.472Z,6.70
2017-12-23T07:40:52.930Z,6.80
2017-12-23T07:43:20.394Z,6.80
2017-12-23T07:45:51.296Z,6.80
2017-12-23T07:48:18.781Z,6.80
2017-12-23T07:50:46.457Z,6.80
2017-12-23T07:53:13.906Z,6.90
2017-12-23T07:55:42.112Z,7.00
2017-12-23T07:58:09.590Z,7.00
2017-12-23T08:00:37.064Z,7.10
2017-12-23T08:03:04.545Z,7.10
2017-12-23T08:05:32.017Z,7.20
2017-12-23T08:08:00.232Z,7.30
2017-12-23T08:10:27.673Z,7.30
2017-12-23T08:12:55.498Z,7.30
2017-12-23T08:15:23.022Z,7.30
2017-12-23T08:17:50.513Z,7.40
2017-12-23T08:20:17.976Z,7.40
2017-12-23T08:22:45.561Z,7.30
2017-12-23T08:25:13.004Z,7.40
2017-12-23T08:27:40.452Z,7.40
2017-12-23T08:30:11.044Z,7.40
2017-12-23T08:32:38.482Z,7.50
2017-12-23T08:35:05.944Z,7.50
2017-12-23T08:37:33.380Z,7.60
2017-12-23T08:40:00.858Z,7.60
2017-12-23T08:42:28.288Z,7.60
2017-12-23T08:44:55.752Z,7.60
2017-12-23T08:47:23.229Z,7.60
2017-12-23T08:49:50.738Z,7.60
2017-12-23T08:52:18.184Z,7.70
2017-12-23T08:54:45.849Z,7.70
2017-12-23T08:57:13.365Z,7.70
2017-12-23T08:59:48.380Z,7.80
2017-12-23T09:02:16.620Z,7.80
2017-12-23T09:04:44.074Z,7.80
2017-12-23T09:07:12.070Z,7.90
2017-12-23T09:09:39.528Z,8.00
2017-12-23T09:12:06.976Z,7.90
2017-12-23T09:14:37.714Z,7.90
2017-12-23T09:17:06.025Z,7.90
2017-12-23T09:19:33.596Z,7.90
2017-12-23T09:22:02.657Z,7.90
2017-12-23T09:24:30.186Z,8.00
2017-12-23T09:26:57.648Z,8.10
2017-12-23T09:29:25.301Z,8.10
2017-12-23T09:31:52.861Z,8.10
2017-12-23T09:34:20.320Z,8.10
2017-12-23T09:36:48.071Z,8.10
2017-12-23T09:39:15.544Z,8.10
2017-12-23T09:41:42.999Z,8.00
2017-12-23T09:44:10.663Z,8.00
2017-12-23T09:46:41.655Z,8.00
2017-12-23T09:49:09.088Z,8.00
2017-12-23T09:51:36.687Z,8.10
2017-12-23T09:54:04.212Z,8.20
2017-12-23T09:56:31.675Z,8.20
2017-12-23T09:58:59.112Z,8.20
2017-12-23T10:01:26.601Z,8.30
2017-12-23T10:03:54.063Z,8.30
2017-12-23T10:06:21.543Z,8.30
2017-12-23T10:08:49.023Z,8.40
2017-12-23T10:11:16.458Z,8.40
2017-12-23T10:13:44.400Z,8.50
2017-12-23T10:16:11.859Z,8.40
2017-12-23T10:18:39.337Z,8.40
2017-12-23T10:21:07.385Z,8.40
2017-12-23T10:23:35.230Z,8.30
2017-12-23T10:26:02.670Z,8.40
2017-12-23T10:28:30.103Z,8.50
2017-12-23T10:31:09.065Z,8.60
2017-12-23T10:33:36.531Z,8.60
2017-12-23T10:36:04.001Z,8.60
2017-12-23T10:38:31.488Z,8.70
2017-12-23T10:40:59.194Z,8.70
2017-12-23T10:43:26.668Z,8.60
2017-12-23T10:45:54.125Z,8.70
2017-12-23T10:48:21.648Z,8.70
2017-12-23T10:50:49.118Z,8.70
2017-12-23T10:53:17.483Z,8.70
2017-12-23T10:55:45.027Z,8.70
2017-12-23T10:58:12.488Z,8.70
2017-12-23T11:00:40.352Z,8.80
2017-12-23T11:03:10.926Z,8.70
2017-12-23T11:05:38.512Z,8.60
2017-12-23T11:08:05.962Z,8.50
2017-12-23T11:10:33.451Z,8.50
2017-12-23T11:13:00.909Z,8.50
2017-12-23T11:15:28.353Z,8.50
2017-12-23T11:18:00.240Z,8.50
2017-12-23T11:20:27.680Z,8.40
2017-12-23T11:22:55.229Z,8.40
2017-12-23T11:25:22.691Z,8.30
2017-12-23T11:27:50.140Z,8.30
2017-12-23T11:30:17.621Z,8.40
2017-12-23T11:32:48.357Z,8.40
2017-12-23T11:35:15.844Z,8.50
2017-12-23T11:37:43.289Z,8.50
2017-12-23T11:40:10.755Z,8.50
2017-12-23T11:42:38.235Z,8.60
2017-12-23T11:45:05.710Z,8.60
2017-12-23T11:47:36.815Z,8.60
2017-12-23T11:50:04.418Z,8.60
2017-12-23T11:52:31.876Z,8.60
2017-12-23T11:54:59.351Z,8.60
2017-12-23T11:57:26.808Z,8.60
2017-12-23T11:59:54.277Z,8.60
2017-12-23T12:02:21.754Z,8.60
2017-12-23T12:04:49.213Z,8.60
2017-12-23T12:07:16.668Z,8.60
2017-12-23T12:09:44.931Z,8.50
2017-12-23T12:12:13.013Z,8.60
2017-12-23T12:14:40.466Z,8.60
2017-12-23T12:17:08.180Z,8.60
2017-12-23T12:19:35.588Z,8.70
2017-12-23T12:22:03.029Z,8.70
2017-12-23T12:24:30.508Z,8.70
2017-12-23T12:26:57.936Z,8.80
2017-12-23T12:29:25.726Z,8.90
2017-12-23T12:31:53.156Z,8.90
2017-12-23T12:34:27.684Z,9.00
2017-12-23T12:36:55.307Z,9.00
2017-12-23T12:39:23.533Z,9.00
2017-12-23T12:41:50.964Z,9.00
2017-12-23T12:44:18.422Z,8.80
2017-12-23T12:46:45.915Z,8.80
2017-12-23T12:49:17.948Z,8.70
2017-12-23T12:51:45.397Z,8.60
2017-12-23T12:54:12.948Z,8.60
2017-12-23T12:56:40.433Z,8.50
2017-12-23T12:59:07.858Z,8.50
2017-12-23T13:01:35.404Z,8.50
2017-12-23T13:04:02.840Z,8.40
2017-12-23T13:06:31.091Z,8.60
2017-12-23T13:08:58.547Z,8.60
2017-12-23T13:11:25.996Z,8.60
2017-12-23T13:13:53.484Z,8.60
2017-12-23T13:16:20.948Z,8.50
2017-12-23T13:18:51.432Z,8.50
2017-12-23T13:21:18.874Z,8.60
2017-12-23T13:23:46.337Z,8.70
2017-12-23T13:26:13.798Z,8.70
2017-12-23T13:28:41.270Z,8.70
2017-12-23T13:31:08.738Z,8.70
2017-12-23T13:33:36.176Z,8.50
2017-12-23T13:36:03.633Z,8.50
2017-12-23T13:38:32.906Z,8.40
2017-12-23T13:41:00.353Z,8.40
2017-12-23T13:43:27.793Z,8.40
2017-12-23T13:45:55.466Z,8.40
2017-12-23T13:48:22.934Z,8.50
2017-12-23T13:50:50.441Z,8.50
2017-12-23T13:53:18.320Z,8.50
2017-12-23T13:55:45.804Z,8.50
2017-12-23T13:58:14.210Z,8.50
2017-12-23T14:00:41.671Z,8.40
2017-12-23T14:03:09.123Z,8.40
2017-12-23T14:05:40.776Z,8.30
2017-12-23T14:08:08.998Z,8.40
2017-12-23T14:10:37.414Z,8.50
2017-12-23T14:13:04.893Z,8.50
2017-12-23T14:15:32.418Z,8.50
2017-12-23T14:18:00.092Z,8.40
2017-12-23T14:20:31.246Z,8.40
2017-12-23T14:22:58.687Z,8.40
2017-12-23T14:25:26.290Z,8.40
2017-12-23T14:27:53.744Z,8.40
2017-12-23T14:30:21.177Z,8.40
2017-12-23T14:32:49.450Z,8.40
2017-12-23T14:35:20.423Z,8.40
2017-12-23T14:37:47.852Z,8.30
2017-12-23T14:40:15.421Z,8.30
2017-12-23T14:42:42.884Z,8.30
2017-12-23T14:45:10.324Z,8.30
2017-12-23T14:47:37.784Z,8.20
2017-12-23T14:50:05.361Z,8.20
2017-12-23T14:52:32.793Z,8.20
2017-12-23T14:55:00.298Z,8.20
2017-12-23T14:57:27.819Z,8.30
2017-12-23T14:59:55.296Z,8.20
2017-12-23T15:02:22.810Z,8.20
2017-12-23T15:04:50.273Z,8.20
2017-12-23T15:07:21.660Z,8.20
2017-12-23T15:09:49.301Z,8.20
2017-12-23T15:12:16.760Z,8.20
2017-12-23T15:14:44.332Z,8.20
2017-12-23T15:17:11.777Z,8.20
2017-12-23T15:19:39.293Z,8.20
2017-12-23T15:22:06.740Z,8.20
2017-12-23T15:24:34.190Z,8.20
2017-12-23T15:27:01.665Z,8.10
2017-12-23T15:29:29.145Z,8.10
2017-12-23T15:31:56.844Z,8.10
2017-12-23T15:34:24.324Z,8.10
2017-12-23T15:36:55.792Z,8.10
2017-12-23T15:39:27.745Z,8.10
2017-12-23T15:41:55.974Z,8.00
2017-12-23T15:44:23.473Z,8.00
2017-12-23T15:46:51.720Z,8.00
2017-12-23T15:49:19.172Z,8.00
2017-12-23T15:51:50.576Z,8.00
2017-12-23T15:54:18.027Z,8.00
2017-12-23T15:56:45.489Z,8.00
2017-12-23T15:59:12.967Z,8.00
2017-12-23T16:01:40.432Z,8.00
2017-12-23T16:04:07.882Z,8.00
2017-12-23T16:06:39.057Z,7.90
2017-12-23T16:09:06.944Z,7.90
2017-12-23T16:11:34.504Z,7.90
2017-12-23T16:14:02.064Z,7.80
2017-12-23T16:16:29.518Z,7.80
2017-12-23T16:18:57.013Z,7.80
2017-12-23T16:21:24.715Z,7.80
2017-12-23T16:23:52.380Z,7.80
2017-12-23T16:26:19.853Z,7.80
2017-12-23T16:28:47.351Z,7.80
2017-12-23T16:31:14.850Z,7.80
2017-12-23T16:33:42.386Z,7.80
2017-12-23T16:36:09.804Z,7.80
2017-12-23T16:38:41.829Z,7.70
2017-12-23T16:41:13.287Z,7.70
2017-12-23T16:43:40.772Z,7.80
2017-12-23T16:46:08.312Z,7.80
2017-12-23T16:48:35.769Z,7.70
2017-12-23T16:51:03.295Z,7.70
2017-12-23T16:53:30.770Z,7.70
2017-12-23T16:56:01.409Z,7.70
2017-12-23T16:58:28.880Z,7.60
2017-12-23T17:00:56.495Z,7.60
2017-12-23T17:03:23.952Z,7.50
2017-12-23T17:05:51.460Z,7.50
2017-12-23T17:08:19.042Z,7.50
2017-12-23T17:10:46.823Z,7.50
2017-12-23T17:13:14.290Z,7.50
2017-12-23T17:15:41.989Z,7.40
2017-12-23T17:18:09.454Z,7.40
2017-12-23T17:20:36.909Z,7.50
2017-12-23T17:23:07.151Z,7.50
2017-12-23T17:25:34.638Z,7.50
2017-12-23T17:28:02.205Z,7.50
2017-12-23T17:30:35.032Z,7.50
2017-12-23T17:33:02.516Z,7.50
2017-12-23T17:35:30.019Z,7.50
2017-12-23T17:37:57.452Z,7.40
2017-12-23T17:40:29.530Z,7.50
2017-12-23T17:42:56.960Z,7.50
2017-12-23T17:45:24.432Z,7.50
2017-12-23T17:47:51.939Z,7.40
2017-12-23T17:50:19.627Z,7.40
2017-12-23T17:52:47.233Z,7.40
2017-12-23T17:55:14.668Z,7.40
2017-12-23T17:57:42.216Z,7.40
2017-12-23T18:00:09.746Z,7.40
2017-12-23T18:02:37.456Z,7.40
2017-12-23T18:05:06.508Z,7.40
2017-12-23T18:07:34.196Z,7.40
2017-12-23T18:10:01.678Z,7.50
2017-12-23T18:12:29.199Z,7.50
2017-12-23T18:14:56.961Z,7.40
2017-12-23T18:17:24.427Z,7.50
2017-12-23T18:19:52.189Z,7.50
2017-12-23T18:22:19.675Z,7.50
2017-12-23T18:24:51.892Z,7.50
2017-12-23T18:27:20.152Z,7.50
2017-12-23T18:29:47.757Z,7.50
2017-12-23T18:32:15.285Z,7.50
2017-12-23T18:34:42.815Z,7.40
2017-12-23T18:37:10.356Z,7.40
2017-12-23T18:39:41.615Z,7.30
2017-12-23T18:42:09.122Z,7.20
2017-12-23T18:44:36.852Z,7.30
2017-12-23T18:47:04.648Z,7.30
2017-12-23T18:49:32.125Z,7.30
2017-12-23T18:51:59.704Z,7.30
2017-12-23T18:54:27.958Z,7.40
2017-12-23T18:56:59.435Z,7.40
2017-12-23T18:59:26.947Z,7.30
2017-12-23T19:01:55.197Z,7.40
2017-12-23T19:04:22.912Z,7.40
2017-12-23T19:06:50.473Z,7.40
2017-12-23T19:09:18.081Z,7.30
2017-12-23T19:11:49.647Z,7.30
2017-12-23T19:14:17.147Z,7.40
2017-12-23T19:16:52.359Z,7.30
2017-12-23T19:19:20.665Z,7.40
2017-12-23T19:21:48.196Z,7.40
2017-12-23T19:24:16.515Z,7.30
2017-12-23T19:26:44.237Z,7.30
2017-12-23T19:29:11.969Z,7.30
2017-12-23T19:31:39.791Z,7.30
2017-12-23T19:34:07.307Z,7.30
2017-12-23T19:36:34.785Z,7.30
2017-12-23T19:39:03.095Z,7.20
2017-12-23T19:41:30.794Z,7.20
2017-12-23T19:43:58.316Z,7.20
2017-12-23T19:46:25.810Z,7.20
2017-12-23T19:48:53.316Z,7.20
2017-12-23T19:51:21.584Z,7.20
2017-12-23T19:53:49.377Z,7.20
2017-12-23T19:56:21.428Z,7.20
2017-12-23T19:58:48.996Z,7.10
2017-12-23T20:01:16.543Z,7.20
2017-12-23T20:03:44.093Z,7.20
2017-12-23T20:06:11.624Z,7.20
2017-12-23T20:08:39.116Z,7.20
2017-12-23T20:11:06.686Z,7.20
2017-12-23T20:13:34.249Z,7.30
2017-12-23T20:16:01.731Z,7.20
2017-12-23T20:18:29.227Z,7.20
2017-12-23T20:20:57.528Z,7.20
2017-12-23T20:23:25.318Z,7.20
2017-12-23T20:25:56.116Z,7.20
2017-12-23T20:28:23.588Z,7.20
2017-12-23T20:30:51.224Z,7.20
2017-12-23T20:33:18.791Z,7.20
2017-12-23T20:35:46.288Z,7.20
2017-12-23T20:38:13.814Z,7.20
2017-12-23T20:40:42.116Z,7.20
2017-12-23T20:43:09.611Z,7.20
2017-12-23T20:45:37.222Z,7.20
2017-12-23T20:48:04.850Z,7.20
2017-12-23T20:50:32.332Z,7.20
2017-12-23T20:53:00.567Z,7.30
2017-12-23T20:55:28.059Z,7.20
2017-12-23T20:57:55.547Z,7.20
2017-12-23T21:00:23.064Z,7.20
2017-12-23T21:02:51.337Z,7.20
2017-12-23T21:05:19.060Z,7.20
2017-12-23T21:07:46.546Z,7.20
2017-12-23T21:10:14.067Z,7.20
2017-12-23T21:12:45.508Z,7.20
2017-12-23T21:15:13.013Z,7.20
2017-12-23T21:17:40.562Z,7.20
2017-12-23T21:20:08.098Z,7.20
2017-12-23T21:22:35.618Z,7.30
2017-12-23T21:25:03.104Z,7.30
2017-12-23T21:27:30.595Z,7.40
2017-12-23T21:29:58.096Z,7.40
2017-12-23T21:32:26.346Z,7.40
2017-12-23T21:34:53.856Z,7.30
2017-12-23T21:37:21.587Z,7.30
2017-12-23T21:39:49.173Z,7.30
2017-12-23T21:42:20.453Z,7.30
2017-12-23T21:44:47.959Z,7.40
2017-12-23T21:47:15.497Z,7.40
2017-12-23T21:49:43.752Z,7.40
2017-12-23T21:52:11.245Z,7.40
2017-12-23T21:54:38.807Z,7.40
2017-12-23T21:57:07.063Z,7.40
2017-12-23T21:59:34.496Z,7.30
2017-12-23T22:02:02.041Z,7.40
2017-12-23T22:04:29.505Z,7.40
2017-12-23T22:06:57.009Z,7.40
2017-12-23T22:09:25.416Z,7.30
2017-12-23T22:11:53.039Z,7.30
2017-12-23T22:14:20.555Z,7.40
2017-12-23T22:16:48.028Z,7.30
2017-12-23T22:19:15.549Z,7.30
2017-12-23T22:21:43.027Z,7.30
2017-12-23T22:24:10.542Z,7.30
2017-12-23T22:26:38.034Z,7.20
2017-12-23T22:29:05.527Z,7.30
2017-12-23T22:31:36.364Z,7.30
2017-12-23T22:34:03.838Z,7.30
2017-12-23T22:36:31.364Z,7.30
2017-12-23T22:38:59.035Z,7.30
2017-12-23T22:41:26.516Z,7.30
2017-12-23T22:43:58.342Z,7.30
2017-12-23T22:46:25.819Z,7.30
2017-12-23T22:48:53.508Z,7.30
2017-12-23T22:51:21.090Z,7.30
2017-12-23T22:53:48.664Z,7.30
2017-12-23T22:56:16.295Z,7.30
2017-12-23T22:58:44.555Z,7.20
2017-12-23T23:01:12.028Z,7.20
2017-12-23T23:03:39.684Z,7.20
2017-12-23T23:06:07.161Z,7.20
2017-12-23T23:08:34.668Z,7.20
2017-12-23T23:11:02.204Z,7.20
2017-12-23T23:13:32.891Z,7.30
2017-12-23T23:16:00.358Z,7.30
2017-12-23T23:18:27.936Z,7.30
2017-12-23T23:20:55.433Z,7.20
2017-12-23T23:23:22.964Z,7.20
2017-12-23T23:25:50.471Z,7.20
2017-12-23T23:28:18.864Z,7.20
2017-12-23T23:30:46.376Z,7.20
2017-12-23T23:33:14.129Z,7.20
2017-12-23T23:35:41.776Z,7.10
2017-12-23T23:38:09.286Z,7.10
2017-12-23T23:40:36.774Z,7.10
2017-12-23T23:43:04.253Z,7.10
2017-12-23T23:45:34.849Z,7.10
2017-12-23T23:48:02.371Z,7.20
2017-12-23T23:50:30.026Z,7.20
2017-12-23T23:52:57.551Z,7.20
2017-12-23T23:55:25.003Z,7.30
2017-12-23T23:57:52.416Z,7.30
